Terminal Aerodrome Forecast
Issued by NWS Wakefield, VA

Home | Current Version | Previous Version | Text Only | Print | Product List | Glossary On
Versions: 1 2 3 4 5 6 7 8 9 10 11 12 13 14 15 16 17 18 19 20
000
FTUS41 KAKQ 022340
TAFRIC
TAF
KRIC 022340Z 0300/0324 02011KT P6SM OVC008
      TEMPO 0300/0304 2SM -RA BR OVC005
     FM030400 03010KT 4SM -RA OVC005
     FM031400 03009KT P6SM -RA OVC008=

USA.gov is the U.S. government's official web portal to all federal, state and local government web resources and services.